Time;durP1;ratioP1;P1;durP2;ratioP2;P2;SDS_P1;SDS_P2;PMS_P1;PMS_P2;Temp;Humidity;BMP_temperature;BMP_pressure;BME280_temperature;BME280_humidity;BME280_pressure;Samples;Min_cycle;Max_cycle;Signal;HPM_P1;HPM_P2
2023/01/11 00:02:19;;;;;;;;;;;11.20;99.90;;;;;;4991132;28;19931;-71
2023/01/11 00:04:46;;;;;;;;;;;11.20;99.90;;;;;;4995649;28;20483;-70
2023/01/11 00:07:13;;;;;;;;;;;11.20;99.90;;;;;;4991386;28;20081;-71
2023/01/11 00:09:39;;;;;;;;;;;11.20;99.90;;;;;;4996246;28;19932;-72
2023/01/11 00:12:07;;;;;;;;;;;11.10;99.90;;;;;;4990589;28;20017;-71
2023/01/11 00:14:33;;;;;;;;;;;11.10;99.90;;;;;;4997373;28;19925;-73
2023/01/11 00:17:00;;;;;;;;;;;11.20;99.90;;;;;;4996512;28;20296;-70
2023/01/11 00:19:28;;;;;;;;;;;11.20;99.90;;;;;;4996296;28;19976;-72
2023/01/11 00:21:55;;;;;;;;;;;11.20;99.90;;;;;;4993213;28;20296;-72
2023/01/11 00:24:21;;;;;;;;;;;11.20;99.90;;;;;;4994281;28;20621;-70
2023/01/11 00:26:48;;;;;;;;;;;11.30;99.90;;;;;;4995431;28;19932;-71
2023/01/11 00:29:15;;;;;;;;;;;11.40;99.90;;;;;;4997078;28;19932;-71
2023/01/11 00:31:41;;;;;;;;;;;11.40;99.90;;;;;;4998560;28;20016;-71
2023/01/11 00:34:08;;;;;;;;;;;11.50;99.90;;;;;;4993351;28;19929;-71
2023/01/11 00:36:36;;;;;;;;;;;11.60;99.90;;;;;;4992344;28;19929;-71
2023/01/11 00:39:03;;;;;;;;;;;11.60;99.90;;;;;;4990682;28;19936;-71
2023/01/11 00:49:42;;;;;;;;;;;11.70;99.90;;;;;;4990997;28;19982;-71
2023/01/11 00:52:11;;;;;;;;;;;11.70;99.90;;;;;;4994904;28;19938;-71
2023/01/11 00:54:39;;;;;;;;;;;11.70;99.90;;;;;;4986457;28;19926;-71
2023/01/11 00:57:06;;;;;;;;;;;11.70;99.90;;;;;;4998987;28;19972;-71
2023/01/11 00:59:33;;;;;;;;;;;11.70;99.90;;;;;;4990029;28;20803;-72
2023/01/11 01:01:59;;;;;;;;;;;11.70;99.90;;;;;;4994559;28;20440;-71
2023/01/11 01:04:26;;;;;;;;;;;11.60;99.90;;;;;;4986726;28;20009;-71
2023/01/11 01:06:53;;;;;;;;;;;11.60;99.90;;;;;;4996627;28;19944;-71
2023/01/11 01:09:21;;;;;;;;;;;11.60;99.90;;;;;;4987825;28;19932;-71
2023/01/11 01:11:47;;;;;;;;;;;11.50;99.90;;;;;;4997558;28;19949;-70
2023/01/11 01:14:27;;;;;;;;;;;11.50;99.90;;;;;;4990716;28;20009;-71
2023/01/11 01:16:54;;;;;;;;;;;11.50;99.90;;;;;;4996474;28;20316;-71
2023/01/11 01:19:21;;;;;;;;;;;11.50;99.90;;;;;;4997009;28;19926;-71
2023/01/11 01:21:48;;;;;;;;;;;11.50;99.90;;;;;;4991044;28;19932;-71
2023/01/11 01:24:14;;;;;;;;;;;11.40;99.90;;;;;;4987852;28;20012;-71
2023/01/11 01:26:42;;;;;;;;;;;11.40;99.90;;;;;;4994476;28;19925;-71
2023/01/11 01:29:09;;;;;;;;;;;11.40;99.90;;;;;;4996009;28;19932;-71
2023/01/11 01:31:35;;;;;;;;;;;11.40;99.90;;;;;;4995361;28;20012;-70
2023/01/11 01:34:02;;;;;;;;;;;11.40;99.90;;;;;;4986705;28;20028;-72
2023/01/11 01:36:29;;;;;;;;;;;11.40;99.90;;;;;;4993120;28;19930;-71
2023/01/11 01:38:56;;;;;;;;;;;11.40;99.90;;;;;;4995374;28;19943;-72
2023/01/11 01:41:22;;;;;;;;;;;11.40;99.90;;;;;;4992186;28;19929;-72
2023/01/11 01:43:51;;;;;;;;;;;11.40;99.90;;;;;;4994175;28;20033;-72
2023/01/11 01:46:19;;;;;;;;;;;11.40;99.90;;;;;;4996048;28;20311;-71
2023/01/11 01:48:48;;;;;;;;;;;11.40;99.90;;;;;;4994784;28;20020;-71
2023/01/11 01:51:18;;;;;;;;;;;11.40;99.90;;;;;;4992046;28;20080;-71
2023/01/11 01:53:47;;;;;;;;;;;11.40;99.90;;;;;;4996934;28;19925;-71
2023/01/11 01:56:15;;;;;;;;;;;11.40;99.90;;;;;;4992490;28;19926;-71
2023/01/11 01:58:44;;;;;;;;;;;11.50;99.90;;;;;;4991817;28;19926;-71
2023/01/11 02:03:58;;;;;;;;;;;11.50;99.90;;;;;;4990433;28;19936;-72
2023/01/11 02:06:25;;;;;;;;;;;11.50;99.90;;;;;;4993676;28;20024;-70
2023/01/11 02:08:55;;;;;;;;;;;11.50;99.90;;;;;;4988481;28;19932;-71
2023/01/11 02:11:31;;;;;;;;;;;11.50;99.90;;;;;;4994652;28;19945;-71
2023/01/11 02:13:58;;;;;;;;;;;11.50;99.90;;;;;;4992060;28;19930;-71
2023/01/11 02:16:26;;;;;;;;;;;11.40;99.90;;;;;;4996114;28;19937;-72
2023/01/11 02:18:53;;;;;;;;;;;11.40;99.90;;;;;;4986904;28;19925;-71
2023/01/11 02:21:23;;;;;;;;;;;11.40;99.90;;;;;;4990159;28;20098;-72
2023/01/11 02:24:08;;;;;;;;;;;11.40;99.90;;;;;;4988445;28;19934;-72
2023/01/11 02:26:47;;;;;;;;;;;11.40;99.90;;;;;;4992472;28;19937;-71
2023/01/11 02:29:23;;;;;;;;;;;11.30;99.90;;;;;;4989000;28;19947;-70
2023/01/11 02:31:53;;;;;;;;;;;11.30;99.90;;;;;;4995411;28;19926;-70
2023/01/11 02:34:26;;;;;;;;;;;11.30;99.90;;;;;;4990993;28;19929;-71
2023/01/11 02:37:02;;;;;;;;;;;11.30;99.90;;;;;;4989046;28;20408;-72
2023/01/11 02:39:32;;;;;;;;;;;11.30;99.90;;;;;;4987485;28;20029;-71
2023/01/11 02:45:01;;;;;;;;;;;11.30;99.90;;;;;;4993803;28;19932;-72
2023/01/11 02:47:31;;;;;;;;;;;11.30;99.90;;;;;;4994559;28;20435;-71
2023/01/11 02:50:01;;;;;;;;;;;11.30;99.90;;;;;;4990325;28;19929;-72
2023/01/11 02:52:34;;;;;;;;;;;11.30;99.90;;;;;;4997573;28;20016;-72
2023/01/11 02:55:01;;;;;;;;;;;11.30;99.90;;;;;;4988576;28;20028;-71
2023/01/11 02:57:29;;;;;;;;;;;11.30;99.90;;;;;;4992756;28;19926;-71
2023/01/11 02:59:57;;;;;;;;;;;11.30;99.90;;;;;;4995431;28;20018;-71
2023/01/11 03:02:24;;;;;;;;;;;11.30;99.90;;;;;;4994987;28;19932;-71
2023/01/11 03:04:51;;;;;;;;;;;11.30;99.90;;;;;;4991887;28;19968;-71
2023/01/11 03:07:29;;;;;;;;;;;11.30;99.90;;;;;;4997387;28;19926;-71
2023/01/11 03:10:02;;;;;;;;;;;11.30;99.90;;;;;;4993547;28;19973;-71
2023/01/11 03:12:53;;;;;;;;;;;11.30;99.90;;;;;;4992369;28;19969;-70
2023/01/11 03:15:39;;;;;;;;;;;11.30;99.90;;;;;;4982672;28;20446;-71
2023/01/11 03:18:13;;;;;;;;;;;11.30;99.90;;;;;;4992037;28;19925;-70
2023/01/11 03:20:41;;;;;;;;;;;11.30;99.90;;;;;;4991369;28;19964;-70
2023/01/11 03:23:12;;;;;;;;;;;11.30;99.90;;;;;;4996678;28;19971;-71
2023/01/11 03:25:41;;;;;;;;;;;11.30;99.90;;;;;;4989008;28;20310;-71
2023/01/11 03:28:12;;;;;;;;;;;11.30;99.90;;;;;;4994009;28;20375;-71
2023/01/11 03:30:43;;;;;;;;;;;11.30;99.90;;;;;;4993871;28;19926;-71
2023/01/11 03:33:13;;;;;;;;;;;11.30;99.90;;;;;;4994742;28;19941;-71
2023/01/11 03:35:42;;;;;;;;;;;11.40;99.90;;;;;;4990545;28;20369;-71
2023/01/11 03:38:10;;;;;;;;;;;11.40;99.90;;;;;;4992565;28;19929;-71
2023/01/11 03:40:38;;;;;;;;;;;11.40;99.90;;;;;;4987678;28;20032;-72
2023/01/11 03:43:12;;;;;;;;;;;11.40;99.90;;;;;;4993104;28;19926;-70
2023/01/11 03:45:41;;;;;;;;;;;11.40;99.90;;;;;;4992319;28;20308;-72
2023/01/11 03:48:09;;;;;;;;;;;11.50;99.90;;;;;;4988019;28;20198;-72
2023/01/11 03:50:37;;;;;;;;;;;11.50;99.90;;;;;;4986087;28;20395;-70
2023/01/11 03:53:06;;;;;;;;;;;11.50;99.90;;;;;;4989865;28;20265;-73
2023/01/11 03:55:37;;;;;;;;;;;11.50;99.90;;;;;;4992369;28;19925;-69
2023/01/11 03:58:03;;;;;;;;;;;11.50;99.90;;;;;;4992413;28;19968;-69
2023/01/11 04:00:31;;;;;;;;;;;11.50;99.90;;;;;;4992660;28;19932;-70
2023/01/11 04:02:59;;;;;;;;;;;11.50;99.90;;;;;;4988534;28;19926;-71
2023/01/11 04:05:26;;;;;;;;;;;11.50;99.90;;;;;;4988027;28;19930;-71
2023/01/11 04:07:54;;;;;;;;;;;11.50;99.90;;;;;;4996912;28;20414;-71
2023/01/11 04:10:20;;;;;;;;;;;11.50;99.90;;;;;;4998795;28;19926;-72
2023/01/11 04:12:47;;;;;;;;;;;11.50;99.90;;;;;;4994203;28;19940;-71
2023/01/11 04:15:14;;;;;;;;;;;11.50;99.90;;;;;;4993942;28;19940;-71
2023/01/11 04:17:40;;;;;;;;;;;11.50;99.90;;;;;;4995137;28;19926;-71
2023/01/11 04:20:08;;;;;;;;;;;11.60;99.90;;;;;;4992446;28;19932;-71
2023/01/11 04:22:35;;;;;;;;;;;11.60;99.90;;;;;;4996438;28;19930;-70
2023/01/11 04:25:03;;;;;;;;;;;11.60;99.90;;;;;;4992571;28;20029;-70
2023/01/11 04:27:30;;;;;;;;;;;11.60;99.90;;;;;;4997381;28;20424;-71
2023/01/11 04:29:56;;;;;;;;;;;11.60;99.90;;;;;;4994089;28;19930;-70
2023/01/11 04:32:23;;;;;;;;;;;11.50;99.90;;;;;;4997751;28;19926;-71
2023/01/11 04:34:50;;;;;;;;;;;11.50;99.90;;;;;;4993582;28;19975;-71
2023/01/11 04:37:17;;;;;;;;;;;11.60;99.90;;;;;;4994832;28;19926;-71
2023/01/11 04:39:43;;;;;;;;;;;11.50;99.90;;;;;;4996069;28;20452;-72
2023/01/11 04:42:20;;;;;;;;;;;11.50;99.90;;;;;;4996528;28;19981;-71
2023/01/11 04:44:47;;;;;;;;;;;11.50;99.90;;;;;;4993169;28;19968;-71
2023/01/11 04:47:14;;;;;;;;;;;11.50;99.90;;;;;;4994729;28;19933;-71
2023/01/11 04:49:41;;;;;;;;;;;11.50;99.90;;;;;;4991853;28;19925;-72
2023/01/11 04:52:09;;;;;;;;;;;11.50;99.90;;;;;;4994789;28;19931;-71
2023/01/11 04:54:36;;;;;;;;;;;11.50;99.90;;;;;;4990900;28;19956;-71
2023/01/11 04:57:03;;;;;;;;;;;11.50;99.90;;;;;;4994512;28;20384;-70
2023/01/11 04:59:31;;;;;;;;;;;11.50;99.90;;;;;;4991439;28;19929;-70
2023/01/11 05:01:57;;;;;;;;;;;11.50;99.90;;;;;;4990296;28;20144;-71
2023/01/11 05:04:24;;;;;;;;;;;11.50;99.90;;;;;;4994349;28;19936;-71
2023/01/11 05:06:51;;;;;;;;;;;11.40;99.90;;;;;;4994878;28;19926;-71
2023/01/11 05:09:18;;;;;;;;;;;11.40;99.90;;;;;;4988410;28;19925;-71
2023/01/11 05:11:45;;;;;;;;;;;11.40;99.90;;;;;;4993965;28;19925;-70
2023/01/11 05:14:12;;;;;;;;;;;11.40;99.90;;;;;;4983032;28;19956;-72
2023/01/11 05:16:40;;;;;;;;;;;11.40;99.90;;;;;;4989076;28;19926;-70
2023/01/11 05:19:06;;;;;;;;;;;11.40;99.90;;;;;;4989703;28;20233;-70
2023/01/11 05:21:34;;;;;;;;;;;11.30;99.90;;;;;;4990751;28;20277;-70
2023/01/11 05:24:01;;;;;;;;;;;11.30;99.90;;;;;;4987059;28;19936;-71
2023/01/11 05:26:28;;;;;;;;;;;11.30;99.90;;;;;;4988586;28;20044;-71
2023/01/11 05:28:56;;;;;;;;;;;11.30;99.90;;;;;;4987104;28;19930;-71
2023/01/11 05:31:23;;;;;;;;;;;11.30;99.90;;;;;;4988457;28;20382;-70
2023/01/11 05:33:51;;;;;;;;;;;11.20;99.90;;;;;;4995839;28;19926;-70
2023/01/11 05:36:18;;;;;;;;;;;11.30;99.90;;;;;;4984345;28;19925;-71
2023/01/11 05:38:45;;;;;;;;;;;11.30;99.90;;;;;;4987305;28;19952;-69
2023/01/11 05:41:12;;;;;;;;;;;11.20;99.90;;;;;;4993049;28;19930;-70
2023/01/11 05:45:27;;;;;;;;;;;11.20;99.90;;;;;;4990703;28;19925;-70
2023/01/11 05:46:25;;;;;;;;;;;11.20;99.90;;;;;;4995244;28;19938;-69
2023/01/11 05:48:54;;;;;;;;;;;11.10;99.90;;;;;;4986152;28;20289;-70
2023/01/11 05:51:21;;;;;;;;;;;11.20;99.90;;;;;;4992008;28;19925;-72
2023/01/11 05:53:47;;;;;;;;;;;11.20;99.90;;;;;;4989796;28;19984;-72
2023/01/11 05:56:14;;;;;;;;;;;11.10;99.90;;;;;;4994635;28;20587;-72
2023/01/11 05:58:41;;;;;;;;;;;11.10;99.90;;;;;;4994627;28;20024;-73
2023/01/11 06:01:08;;;;;;;;;;;11.10;99.90;;;;;;4990735;28;19932;-72
2023/01/11 06:03:34;;;;;;;;;;;11.10;99.90;;;;;;4992959;28;20036;-72
2023/01/11 06:06:02;;;;;;;;;;;11.10;99.90;;;;;;4989084;28;20021;-73
2023/01/11 06:08:29;;;;;;;;;;;11.10;99.90;;;;;;4990987;28;19925;-72
2023/01/11 06:10:56;;;;;;;;;;;11.00;99.90;;;;;;4987706;28;20008;-72
2023/01/11 06:13:26;;;;;;;;;;;11.10;99.90;;;;;;4995117;28;20427;-72
2023/01/11 06:15:53;;;;;;;;;;;11.00;99.90;;;;;;4985229;28;19934;-72
2023/01/11 06:18:20;;;;;;;;;;;10.90;99.90;;;;;;4996219;28;19932;-71
2023/01/11 06:20:48;;;;;;;;;;;10.90;99.90;;;;;;4987639;28;20020;-71
2023/01/11 06:23:16;;;;;;;;;;;10.90;99.90;;;;;;4988611;28;19977;-73
2023/01/11 06:25:43;;;;;;;;;;;10.90;99.90;;;;;;4994077;28;19926;-72
2023/01/11 06:28:10;;;;;;;;;;;10.90;99.90;;;;;;4985982;28;19926;-71
2023/01/11 06:30:37;;;;;;;;;;;10.80;99.90;;;;;;4986702;28;20372;-71
2023/01/11 06:33:05;;;;;;;;;;;10.80;99.90;;;;;;4989567;28;20012;-71
2023/01/11 06:35:33;;;;;;;;;;;10.80;99.90;;;;;;4988777;28;19932;-70
2023/01/11 06:37:59;;;;;;;;;;;10.70;99.90;;;;;;4988997;28;19983;-72
2023/01/11 06:40:28;;;;;;;;;;;10.60;99.90;;;;;;4981970;28;20221;-73
2023/01/11 06:42:54;;;;;;;;;;;10.60;99.90;;;;;;4982773;28;19926;-72
2023/01/11 06:45:21;;;;;;;;;;;10.60;99.90;;;;;;4984206;28;19933;-72
2023/01/11 06:47:48;;;;;;;;;;;10.60;99.90;;;;;;4983948;28;20028;-72
2023/01/11 06:50:15;;;;;;;;;;;10.50;99.90;;;;;;4979615;28;19926;-72
2023/01/11 06:52:42;;;;;;;;;;;10.40;99.90;;;;;;4983280;28;19933;-72
2023/01/11 06:55:09;;;;;;;;;;;10.40;99.90;;;;;;4982840;28;19933;-73
2023/01/11 06:57:37;;;;;;;;;;;10.30;99.90;;;;;;4984136;28;19930;-72
2023/01/11 07:00:04;;;;;;;;;;;10.20;99.90;;;;;;4984807;28;19940;-71
2023/01/11 07:02:31;;;;;;;;;;;10.20;99.90;;;;;;4988263;28;19944;-72
2023/01/11 07:04:58;;;;;;;;;;;10.10;99.90;;;;;;4985159;28;19995;-72
2023/01/11 07:07:25;;;;;;;;;;;10.10;99.90;;;;;;4990042;28;20388;-72
2023/01/11 07:09:52;;;;;;;;;;;10.00;99.90;;;;;;4982033;28;19933;-72
2023/01/11 07:12:19;;;;;;;;;;;10.00;99.90;;;;;;4991369;28;20392;-71
2023/01/11 07:14:47;;;;;;;;;;;9.90;99.90;;;;;;4987424;28;20449;-71
2023/01/11 07:17:14;;;;;;;;;;;9.90;99.90;;;;;;4994162;28;20025;-73
2023/01/11 07:19:40;;;;;;;;;;;9.80;99.90;;;;;;4986490;28;19936;-72
2023/01/11 07:22:07;;;;;;;;;;;9.80;99.90;;;;;;4985738;28;19926;-73
2023/01/11 07:24:34;;;;;;;;;;;9.80;99.90;;;;;;4982228;28;19956;-67
2023/01/11 07:27:01;;;;;;;;;;;9.70;99.90;;;;;;4990038;28;19934;-67
2023/01/11 07:29:28;;;;;;;;;;;9.70;99.90;;;;;;4982998;28;19933;-71
2023/01/11 07:31:56;;;;;;;;;;;9.70;99.90;;;;;;4991968;28;20339;-70
2023/01/11 07:34:23;;;;;;;;;;;9.60;99.90;;;;;;4989282;28;19942;-71
2023/01/11 07:36:50;;;;;;;;;;;9.60;99.90;;;;;;4991367;28;19941;-70
2023/01/11 07:39:17;;;;;;;;;;;9.50;99.90;;;;;;4988229;28;20141;-70
2023/01/11 07:44:27;;;;;;;;;;;9.40;99.90;;;;;;4992302;28;19940;-71
2023/01/11 07:46:55;;;;;;;;;;;9.40;99.90;;;;;;4991939;28;20445;-71
2023/01/11 07:49:22;;;;;;;;;;;9.30;99.90;;;;;;4989719;28;19926;-71
2023/01/11 07:51:50;;;;;;;;;;;9.30;99.90;;;;;;4992339;28;19929;-72
2023/01/11 07:54:17;;;;;;;;;;;9.20;99.90;;;;;;4988015;28;19980;-71
2023/01/11 07:56:44;;;;;;;;;;;9.20;99.90;;;;;;4991271;28;20375;-72
2023/01/11 07:59:10;;;;;;;;;;;9.20;99.90;;;;;;4989393;28;20011;-71
2023/01/11 08:01:37;;;;;;;;;;;9.10;99.90;;;;;;4987098;28;19929;-72
2023/01/11 08:04:05;;;;;;;;;;;9.10;99.90;;;;;;4986966;28;19951;-72
2023/01/11 08:06:32;;;;;;;;;;;9.10;99.90;;;;;;4991376;28;20396;-71
2023/01/11 08:08:59;;;;;;;;;;;9.10;99.90;;;;;;4985077;28;20037;-71
2023/01/11 08:14:39;;;;;;;;;;;9.00;99.90;;;;;;4934879;28;20601;-71
2023/01/11 08:17:06;;;;;;;;;;;9.00;99.90;;;;;;4983845;28;19936;-72
2023/01/11 08:19:34;;;;;;;;;;;9.00;99.90;;;;;;4991408;28;19934;-71
2023/01/11 08:22:01;;;;;;;;;;;9.00;99.90;;;;;;4991953;28;20376;-71
2023/01/11 08:24:27;;;;;;;;;;;9.00;99.90;;;;;;4992109;28;19940;-71
2023/01/11 08:26:54;;;;;;;;;;;9.00;99.90;;;;;;4997297;28;20013;-72
2023/01/11 08:29:21;;;;;;;;;;;9.00;99.90;;;;;;4988316;28;20127;-71
2023/01/11 08:31:48;;;;;;;;;;;9.00;99.90;;;;;;4989243;28;19934;-71
2023/01/11 08:34:15;;;;;;;;;;;9.00;99.90;;;;;;4981807;28;19934;-70
2023/01/11 08:36:43;;;;;;;;;;;9.00;99.90;;;;;;4990064;28;20348;-72
2023/01/11 08:39:09;;;;;;;;;;;9.00;99.90;;;;;;4988357;28;19929;-70
2023/01/11 08:41:37;;;;;;;;;;;9.00;99.90;;;;;;4994748;28;20479;-73
2023/01/11 08:44:04;;;;;;;;;;;9.00;99.90;;;;;;4986904;28;20381;-71
2023/01/11 08:46:32;;;;;;;;;;;9.00;99.90;;;;;;4993579;28;20393;-69
2023/01/11 08:49:00;;;;;;;;;;;9.00;99.90;;;;;;4989132;28;20405;-70
2023/01/11 08:51:26;;;;;;;;;;;9.00;99.90;;;;;;5000011;28;20346;-72
2023/01/11 08:53:55;;;;;;;;;;;8.90;99.90;;;;;;4982846;28;19944;-72
2023/01/11 08:56:21;;;;;;;;;;;9.00;99.90;;;;;;4993673;28;20039;-72
2023/01/11 08:58:48;;;;;;;;;;;9.00;99.90;;;;;;4989682;28;20713;-73
2023/01/11 09:01:14;;;;;;;;;;;9.30;99.90;;;;;;4985653;28;20398;-73
2023/01/11 09:03:41;;;;;;;;;;;9.20;99.90;;;;;;4982878;28;19933;-72
2023/01/11 09:06:08;;;;;;;;;;;9.20;99.90;;;;;;4984302;28;19929;-72
2023/01/11 09:08:35;;;;;;;;;;;9.70;99.90;;;;;;4981253;28;20008;-72
2023/01/11 09:11:52;;;;;;;;;;;10.00;99.90;;;;;;4979634;28;19938;-73
2023/01/11 09:13:49;;;;;;;;;;;9.80;99.90;;;;;;4980002;28;19941;-71
2023/01/11 09:16:16;;;;;;;;;;;9.50;99.90;;;;;;4986505;28;20488;-71
2023/01/11 09:18:42;;;;;;;;;;;9.40;99.90;;;;;;4980341;28;20054;-71
2023/01/11 09:21:09;;;;;;;;;;;9.80;99.90;;;;;;4975706;28;20526;-71
2023/01/11 09:23:36;;;;;;;;;;;10.60;99.90;;;;;;4981180;28;19932;-72
2023/01/11 09:26:05;;;;;;;;;;;11.10;99.90;;;;;;4984795;28;19926;-69
2023/01/11 09:28:31;;;;;;;;;;;11.30;99.90;;;;;;4980176;28;19926;-69
2023/01/11 09:30:58;;;;;;;;;;;11.00;99.90;;;;;;4978991;28;19980;-69
2023/01/11 09:33:25;;;;;;;;;;;10.30;99.90;;;;;;4987842;28;20021;-74
2023/01/11 09:35:51;;;;;;;;;;;9.80;99.90;;;;;;4977499;28;20364;-69
2023/01/11 09:38:18;;;;;;;;;;;9.70;99.90;;;;;;5001713;28;19995;-70
2023/01/11 09:40:50;;;;;;;;;;;9.50;99.90;;;;;;4982747;28;19925;-69
2023/01/11 09:43:21;;;;;;;;;;;9.50;99.90;;;;;;4993985;28;19925;-69
2023/01/11 09:45:50;;;;;;;;;;;9.50;99.90;;;;;;4983844;28;19932;-70
2023/01/11 09:48:27;;;;;;;;;;;9.60;99.90;;;;;;4979457;28;19941;-70
2023/01/11 09:50:54;;;;;;;;;;;9.60;99.90;;;;;;4992696;28;19929;-67
2023/01/11 09:53:26;;;;;;;;;;;9.60;99.90;;;;;;4988109;28;20067;-68
2023/01/11 09:55:56;;;;;;;;;;;9.70;99.90;;;;;;4982595;28;19940;-68
2023/01/11 09:58:35;;;;;;;;;;;9.70;99.90;;;;;;4985861;28;20021;-67
2023/01/11 10:01:09;;;;;;;;;;;9.70;99.90;;;;;;4989201;28;19937;-68
2023/01/11 10:03:57;;;;;;;;;;;9.70;99.90;;;;;;4992464;28;19925;-67
2023/01/11 10:06:25;;;;;;;;;;;9.70;99.90;;;;;;4987436;28;19928;-67
2023/01/11 10:08:58;;;;;;;;;;;9.80;99.90;;;;;;4981326;28;19937;-71
2023/01/11 10:11:30;;;;;;;;;;;9.80;99.90;;;;;;4984680;28;19926;-72
2023/01/11 10:14:05;;;;;;;;;;;9.90;99.90;;;;;;4979050;28;20033;-71
2023/01/11 10:16:37;;;;;;;;;;;9.90;99.90;;;;;;4977822;28;20381;-71
2023/01/11 10:19:12;;;;;;;;;;;9.90;99.90;;;;;;4984116;28;19926;-71
2023/01/11 10:21:42;;;;;;;;;;;9.90;99.90;;;;;;4983519;28;19934;-70
2023/01/11 10:24:13;;;;;;;;;;;10.00;99.90;;;;;;4987744;28;19938;-72
2023/01/11 10:26:40;;;;;;;;;;;10.00;99.90;;;;;;4992700;28;19979;-72
2023/01/11 10:32:12;;;;;;;;;;;10.10;99.90;;;;;;4968066;28;20388;-72
2023/01/11 10:34:58;;;;;;;;;;;10.10;99.90;;;;;;4986758;28;20369;-72
2023/01/11 10:37:45;;;;;;;;;;;10.20;99.90;;;;;;4986090;28;19995;-72
2023/01/11 10:40:30;;;;;;;;;;;10.20;99.90;;;;;;4983472;28;21469;-72
2023/01/11 10:43:02;;;;;;;;;;;10.20;99.90;;;;;;4991513;28;19932;-72
2023/01/11 10:45:36;;;;;;;;;;;10.30;99.90;;;;;;4984763;28;19932;-72
2023/01/11 10:48:04;;;;;;;;;;;10.30;99.90;;;;;;4984691;28;20305;-74
2023/01/11 10:50:33;;;;;;;;;;;10.30;99.90;;;;;;4975333;28;19932;-72
2023/01/11 10:53:05;;;;;;;;;;;10.40;99.90;;;;;;4979115;28;19933;-70
2023/01/11 10:55:35;;;;;;;;;;;10.40;99.90;;;;;;4983323;28;19930;-70
2023/01/11 10:58:07;;;;;;;;;;;10.40;99.90;;;;;;4983320;28;19934;-70
2023/01/11 11:00:40;;;;;;;;;;;10.50;99.90;;;;;;4976828;28;19926;-72
2023/01/11 11:03:15;;;;;;;;;;;10.60;99.90;;;;;;4984271;28;19936;-69
2023/01/11 11:05:44;;;;;;;;;;;10.50;99.90;;;;;;4981782;28;20562;-70
2023/01/11 11:08:13;;;;;;;;;;;10.50;99.90;;;;;;4980083;28;20289;-71
2023/01/11 11:10:44;;;;;;;;;;;10.60;99.90;;;;;;4978743;28;20295;-70
2023/01/11 11:13:13;;;;;;;;;;;10.70;99.90;;;;;;4984953;28;19941;-71
2023/01/11 11:15:49;;;;;;;;;;;10.80;99.90;;;;;;4985574;28;19960;-72
2023/01/11 11:18:16;;;;;;;;;;;10.90;99.90;;;;;;4987458;28;19929;-70
2023/01/11 11:20:45;;;;;;;;;;;11.00;99.90;;;;;;4981752;28;19930;-71
2023/01/11 11:23:14;;;;;;;;;;;11.00;99.90;;;;;;4987489;28;20948;-72
2023/01/11 11:25:41;;;;;;;;;;;10.90;99.90;;;;;;4980569;28;19979;-70
2023/01/11 11:28:23;;;;;;;;;;;10.90;99.90;;;;;;4982653;28;19937;-74
2023/01/11 11:30:52;;;;;;;;;;;10.80;99.90;;;;;;4985059;28;19925;-72
2023/01/11 11:33:22;;;;;;;;;;;10.80;99.90;;;;;;4989165;28;20017;-72
2023/01/11 11:36:00;;;;;;;;;;;10.90;99.90;;;;;;4982435;28;20396;-72
2023/01/11 11:38:34;;;;;;;;;;;10.90;99.90;;;;;;4997732;28;19929;-73
2023/01/11 11:41:04;;;;;;;;;;;10.90;99.90;;;;;;4995028;28;19965;-73
2023/01/11 11:43:32;;;;;;;;;;;10.90;99.90;;;;;;4982169;28;19932;-73
2023/01/11 11:46:01;;;;;;;;;;;10.90;99.90;;;;;;4991255;28;19933;-72
2023/01/11 11:48:30;;;;;;;;;;;10.90;99.90;;;;;;4985335;28;19930;-71
2023/01/11 11:50:58;;;;;;;;;;;10.90;99.90;;;;;;4989251;28;19933;-73
2023/01/11 11:53:32;;;;;;;;;;;11.00;99.90;;;;;;4988922;28;19926;-73
2023/01/11 11:56:00;;;;;;;;;;;11.00;99.90;;;;;;4978812;28;19930;-72
2023/01/11 11:58:27;;;;;;;;;;;11.10;99.90;;;;;;4983792;28;20343;-72
2023/01/11 12:00:54;;;;;;;;;;;11.10;99.90;;;;;;4980484;28;19933;-71
2023/01/11 12:03:23;;;;;;;;;;;11.20;99.90;;;;;;4995900;28;20482;-71
2023/01/11 12:05:52;;;;;;;;;;;11.10;99.90;;;;;;4980460;28;19932;-72
2023/01/11 12:08:20;;;;;;;;;;;11.10;99.90;;;;;;4985188;28;20010;-72
2023/01/11 12:10:48;;;;;;;;;;;11.00;99.90;;;;;;4977081;28;19930;-70
2023/01/11 12:13:25;;;;;;;;;;;11.00;99.90;;;;;;4985468;28;20512;-71
2023/01/11 12:15:56;;;;;;;;;;;11.10;99.90;;;;;;4979226;28;20331;-71
2023/01/11 12:18:25;;;;;;;;;;;11.10;99.90;;;;;;4982408;28;19945;-71
2023/01/11 12:20:52;;;;;;;;;;;11.10;99.90;;;;;;4976423;28;19926;-71
2023/01/11 12:23:22;;;;;;;;;;;11.10;99.90;;;;;;4980900;28;19964;-69
2023/01/11 12:26:15;;;;;;;;;;;11.20;99.90;;;;;;4988482;28;19930;-69
2023/01/11 12:28:56;;;;;;;;;;;11.20;99.90;;;;;;4981710;28;20384;-70
2023/01/11 12:31:29;;;;;;;;;;;11.30;99.90;;;;;;4992474;28;20338;-71
2023/01/11 12:34:01;;;;;;;;;;;11.30;99.90;;;;;;4979167;28;21532;-72
2023/01/11 12:36:31;;;;;;;;;;;11.30;99.90;;;;;;4986837;28;19926;-71
2023/01/11 12:39:06;;;;;;;;;;;11.30;99.90;;;;;;4984264;28;19941;-71
2023/01/11 12:41:53;;;;;;;;;;;11.30;99.90;;;;;;4981277;28;20346;-71
2023/01/11 12:44:25;;;;;;;;;;;11.30;99.90;;;;;;4986463;28;20306;-71
2023/01/11 12:47:02;;;;;;;;;;;11.30;99.90;;;;;;4980840;28;19934;-70
2023/01/11 12:49:36;;;;;;;;;;;11.30;99.90;;;;;;4976067;28;19984;-71
2023/01/11 12:52:17;;;;;;;;;;;11.30;99.90;;;;;;4976915;28;20025;-70
2023/01/11 12:54:51;;;;;;;;;;;11.30;99.90;;;;;;4983468;28;20586;-70
2023/01/11 12:57:22;;;;;;;;;;;11.30;99.90;;;;;;4987633;28;19934;-70
2023/01/11 12:59:57;;;;;;;;;;;11.40;99.90;;;;;;4980871;28;19933;-69
2023/01/11 13:02:38;;;;;;;;;;;11.50;99.90;;;;;;4990323;28;20003;-71
2023/01/11 13:05:14;;;;;;;;;;;11.60;99.90;;;;;;4983313;28;19965;-69
2023/01/11 13:07:48;;;;;;;;;;;11.50;99.90;;;;;;5008195;28;19929;-67
2023/01/11 13:10:29;;;;;;;;;;;11.30;99.90;;;;;;4989794;28;19940;-68
2023/01/11 13:12:59;;;;;;;;;;;11.20;99.90;;;;;;4980227;28;19944;-69
2023/01/11 13:15:31;;;;;;;;;;;11.10;99.90;;;;;;4985451;28;19926;-69
2023/01/11 13:18:00;;;;;;;;;;;11.10;99.90;;;;;;4992981;28;20008;-69
2023/01/11 13:20:37;;;;;;;;;;;11.10;99.90;;;;;;4983308;28;19926;-70
2023/01/11 13:23:09;;;;;;;;;;;11.20;99.90;;;;;;4981646;28;19932;-69
2023/01/11 13:25:38;;;;;;;;;;;11.10;99.90;;;;;;4988281;28;19925;-68
2023/01/11 13:28:12;;;;;;;;;;;11.20;99.90;;;;;;4986486;28;19933;-70
2023/01/11 13:30:40;;;;;;;;;;;11.10;99.90;;;;;;4985511;28;19982;-69
2023/01/11 13:33:17;;;;;;;;;;;11.10;99.90;;;;;;4991546;28;19926;-70
2023/01/11 13:35:48;;;;;;;;;;;11.10;99.90;;;;;;4984611;28;20522;-70
2023/01/11 13:38:22;;;;;;;;;;;11.00;99.90;;;;;;4992577;28;19965;-70
2023/01/11 13:40:51;;;;;;;;;;;11.00;99.90;;;;;;4982493;28;20366;-70
2023/01/11 13:43:20;;;;;;;;;;;11.00;99.90;;;;;;4986604;28;20335;-70
2023/01/11 13:45:49;;;;;;;;;;;11.00;99.90;;;;;;4983517;28;19926;-69
2023/01/11 13:48:20;;;;;;;;;;;11.00;99.90;;;;;;5022406;28;20012;-69
2023/01/11 13:50:51;;;;;;;;;;;10.90;99.90;;;;;;4987609;28;19930;-70
2023/01/11 13:53:22;;;;;;;;;;;10.90;99.90;;;;;;4980813;28;19930;-70
2023/01/11 13:55:52;;;;;;;;;;;10.80;99.90;;;;;;4987472;28;19930;-70
2023/01/11 13:58:22;;;;;;;;;;;10.80;99.90;;;;;;4992362;28;19977;-71
2023/01/11 14:00:51;;;;;;;;;;;10.70;99.90;;;;;;4986928;28;19969;-70
2023/01/11 14:03:22;;;;;;;;;;;10.70;99.90;;;;;;4989016;28;19953;-69
2023/01/11 14:05:56;;;;;;;;;;;10.60;99.90;;;;;;4984398;28;20028;-70
2023/01/11 14:08:29;;;;;;;;;;;10.70;99.90;;;;;;4985342;28;19930;-69
2023/01/11 14:10:59;;;;;;;;;;;10.70;99.90;;;;;;4985371;28;20015;-69
2023/01/11 14:16:21;;;;;;;;;;;10.50;99.90;;;;;;4982931;28;19932;-70
2023/01/11 14:18:51;;;;;;;;;;;10.50;99.90;;;;;;4988494;28;20016;-68
2023/01/11 14:21:23;;;;;;;;;;;10.40;99.90;;;;;;4986969;28;19933;-69
2023/01/11 14:23:50;;;;;;;;;;;10.40;99.90;;;;;;4983977;28;20369;-69
2023/01/11 14:26:27;;;;;;;;;;;10.40;99.90;;;;;;4985454;28;20409;-69
2023/01/11 14:29:10;;;;;;;;;;;10.40;99.90;;;;;;4979116;28;19932;-70
2023/01/11 14:31:46;;;;;;;;;;;10.40;99.90;;;;;;4973499;28;20012;-70
2023/01/11 14:34:21;;;;;;;;;;;10.40;99.90;;;;;;4974515;28;19936;-69
2023/01/11 14:37:10;;;;;;;;;;;10.40;99.90;;;;;;4987609;28;19937;-71
2023/01/11 14:39:55;;;;;;;;;;;10.30;99.90;;;;;;4977978;28;20029;-69
2023/01/11 14:42:33;;;;;;;;;;;10.20;99.90;;;;;;4975068;28;19944;-71
2023/01/11 14:45:12;;;;;;;;;;;10.20;99.90;;;;;;4977272;28;20391;-69
2023/01/11 14:47:51;;;;;;;;;;;10.20;99.90;;;;;;4998556;28;19973;-70
2023/01/11 14:50:24;;;;;;;;;;;10.20;99.90;;;;;;4982053;28;20392;-69
2023/01/11 14:52:53;;;;;;;;;;;10.10;99.90;;;;;;4983019;28;20395;-71
2023/01/11 14:55:22;;;;;;;;;;;10.20;99.90;;;;;;4984882;28;19979;-70
2023/01/11 14:58:04;;;;;;;;;;;10.20;99.90;;;;;;4984714;28;19964;-69
2023/01/11 15:00:49;;;;;;;;;;;10.20;99.90;;;;;;4995138;28;20021;-73